Terminal Aerodrome Forecast
Issued by NWS

Current Version | Previous Version | Text Only | Print | Product List | Glossary Off
Versions: 1 2 3 4 5 6 7 8 9 10 11 12 13 14 15 16 17 18 19 20 21 22

000
FTUS41 KILN 241100
TAFLUK
TAF
KLUK 241120Z 2412/2512 00000KT P6SM FEW250
     FM241400 23005KT P6SM SCT250
     FM242100 17005KT P6SM SCT080 BKN250
     FM250200 12004KT P6SM OVC080
     FM250800 14006KT P6SM VCSH SCT035 OVC050=

USA.gov is the U.S. government's official web portal to all federal, state and local government web resources and services.